• Join FlightAware (Why Join?)
  • Login
  • US Flag 
08:27PM EDT


 

Airport Tracker/Info


-or-


 

Live Flight TrackerFlight Track Log ✈ UAL495 ✈ 19-Apr-2013 ✈ KLAX - KDEN

Flight Track Log - Related Links

Times and Time Zones

All times are in EDT time to prevent confusion due to time zone crossing. See the UAL495 flight status page for this flight to view local times or setup timezone preferences in your user account.

Time Position Orientation Groundspeed Altitude Reporting Facility
EDT Latitude Longitude Course Direction KTS MPH feet Rate Location/Type
08:55AM 33.9333 -118.4333 90° East 188 216 1,400  Level Southern California TRACON
08:56AM 33.9239 -118.4653 250° West 241 277 2,400 2,340 Climbing Los Angeles Center
08:57AM 33.8628 -118.4808 192° South 227 261 4,900 2,640 Climbing Los Angeles Center
08:58AM 33.7837 -118.6449 132° Southeast  Level FlightAware Approximate
08:58AM 33.7953 -118.4989 193° South 268 308 7,800  Level Los Angeles Center
08:59AM 33.7048 -118.5434 134° Southeast  Level FlightAware Approximate
08:59AM 33.7169 -118.5139 189° South 287 330 10,700  Level Los Angeles Center
09:00AM 33.6667 -118.4169 101° East  Level FlightAware Approximate
09:00AM 33.6625 -118.4417 132° Southeast 321 369 12,500  Level Los Angeles Center
09:01AM 33.6334 -118.2873 90° East  Level FlightAware Approximate
09:01AM 33.6439 -118.2967 99° East 378 435 14,800  Level Los Angeles Center
09:02AM 33.6603 -118.1692 81° East 403 464 17,100 2,160 Climbing Los Angeles Center
09:03AM 33.7444 -118.0894 38° Northeast 397 457 19,200 2,040 Climbing Los Angeles Center
09:04AM 33.8342 -118.0100 36° Northeast 404 465 21,300 1,980 Climbing Los Angeles Center
09:05AM 33.9258 -117.9253 37° Northeast 415 478 23,300 1,800 Climbing Los Angeles Center
09:06AM 34.0211 -117.8389 37° Northeast 427 491 25,000 1,680 Climbing Los Angeles Center
09:07AM 34.1153 -117.7456 39° Northeast 438 504 26,700 1,500 Climbing Los Angeles Center
09:08AM 34.1986 -117.6294 49° Northeast 455 524 28,100 1,800 Climbing Los Angeles Center
09:09AM 34.2825 -117.5133 49° Northeast 461 531 30,400 2,100 Climbing Los Angeles Center
09:10AM 34.3633 -117.4036 48° Northeast 443 510 32,400 1,920 Climbing Los Angeles Center
09:11AM 34.4444 -117.2911 49° Northeast 429 494 34,300 1,320 Climbing Los Angeles Center
09:12AM 34.5228 -117.1850 48° Northeast 425 489 35,100 780 Climbing Los Angeles Center
09:13AM 34.6022 -117.0742 49° Northeast 435 501 35,900 780 Climbing Los Angeles Center
09:14AM 34.6842 -116.9631 48° Northeast 443 510 36,800 540 Climbing Los Angeles Center
09:15AM 34.7658 -116.8497 49° Northeast 448 516 37,000 60 Climbing Los Angeles Center
09:16AM 34.8453 -116.7383 49° Northeast 441 507 37,000  Level Los Angeles Center
09:17AM 34.9414 -116.6033 49° Northeast 441 507 37,000  Level Los Angeles Center
09:18AM 35.0250 -116.4950 47° Northeast 441 507 37,000  Level Los Angeles Center
09:19AM 35.1103 -116.3903 45° Northeast 439 505 37,000  Level Los Angeles Center
09:20AM 35.1942 -116.2853 46° Northeast 434 499 37,000  Level Los Angeles Center
09:21AM 35.2781 -116.1786 46° Northeast 435 501 37,000  Level Los Angeles Center
09:22AM 35.3619 -116.0731 46° Northeast 434 499 37,000 300 Level Los Angeles Center
09:23AM 35.4464 -115.9664 46° Northeast 436 502 37,700 600 Climbing Los Angeles Center
09:24AM 35.5433 -115.8467 45° Northeast 436 502 38,300 420 Climbing Los Angeles Center
09:25AM 35.6019 -115.7094 62° Northeast 452 520 38,600 300 Climbing Los Angeles Center
09:26AM 35.6625 -115.5689 62° Northeast 463 533 39,000 180 Climbing Los Angeles Center
09:27AM 35.7083 -115.4544 64° Northeast 467 537 39,000  Level Los Angeles Center
09:28AM 35.7758 -115.2819 64° Northeast 469 540 39,000  Level Los Angeles Center
09:29AM 35.8300 -115.1394 65° Northeast 465 535 39,000  Level Los Angeles Center
09:30AM 35.8867 -114.9972 64° Northeast 464 534 39,000  Level Los Angeles Center
09:31AM 35.9419 -114.8544 64° Northeast 465 535 39,000  Level Los Angeles Center
09:32AM 35.9969 -114.7094 65° Northeast 467 537 39,000  Level Los Angeles Center
09:33AM 36.0533 -114.5644 64° Northeast 469 540 39,000  Level Los Angeles Center
09:34AM 36.1208 -114.3883 65° Northeast 473 544 39,000  Level Los Angeles Center
09:35AM 36.1772 -114.2403 65° Northeast 476 548 39,000  Level Los Angeles Center
09:36AM 36.2342 -114.0922 64° Northeast 477 549 39,000  Level Los Angeles Center
09:37AM 36.2908 -113.9458 64° Northeast 475 547 39,000  Level Los Angeles Center
09:38AM 36.3461 -113.7967 65° Northeast 475 547 39,000  Level Los Angeles Center
09:39AM 36.4003 -113.6489 65° Northeast 473 544 39,000  Level Los Angeles Center
09:40AM 36.4564 -113.5019 65° Northeast 472 543 39,000  Level Los Angeles Center
09:42AM 36.5117 -113.3542 65° Northeast 471 542 39,000  Level Los Angeles Center
09:43AM 36.5639 -113.2103 66° East 464 534 39,000  Level Los Angeles Center
09:44AM 36.6267 -113.0386 65° Northeast 459 528 39,000  Level Los Angeles Center
09:45AM 36.6792 -112.8978 65° Northeast 454 522 39,000  Level Los Angeles Center
09:46AM 36.7306 -112.7550 66° East 453 521 39,000  Level Los Angeles Center
09:47AM 36.7819 -112.6136 66° East 452 520 39,000  Level Los Angeles Center
09:48AM 36.8347 -112.4703 65° Northeast 455 524 39,000  Level Los Angeles Center
09:49AM 36.8864 -112.3275 66° East 455 524 39,000  Level Los Angeles Center
09:50AM 36.9381 -112.1842 66° East 456 525 39,000  Level Los Angeles Center
09:51AM 36.9906 -112.0389 66° East 459 528 39,000  Level Denver Center
09:52AM 37.0422 -111.8933 66° East 461 531 39,000  Level Denver Center
09:53AM 37.0950 -111.7489 65° Northeast 460 529 39,000  Level Denver Center
09:54AM 37.1456 -111.6022 67° East 460 529 39,000  Level Denver Center
09:55AM 37.1906 -111.4647 68° East 438 504 39,000  Level Denver Center
09:56AM 37.2403 -111.3242 66° East 442 509 39,000  Level Denver Center
09:57AM 37.2972 -111.1547 67° East 442 509 39,000  Level Denver Center
09:58AM 37.3467 -111.0117 66° East 447 514 39,000  Level Denver Center
09:59AM 37.3969 -110.8675 66° East 451 519 39,000  Level Denver Center
10:00AM 37.4467 -110.7214 67° East 455 524 39,000  Level Denver Center
10:01AM 37.4958 -110.5744 67° East 457 526 39,000  Level Denver Center
10:02AM 37.5481 -110.4214 67° East 460 529 39,000  Level Denver Center
10:03AM 37.5947 -110.2800 67° East 459 528 39,000  Level Denver Center
10:04AM 37.6514 -110.1136 67° East 460 529 39,000  Level Denver Center
10:05AM 37.6983 -109.9728 67° East 457 526 39,000  Level Denver Center
10:06AM 37.7450 -109.8322 67° East 454 522 39,000  Level Denver Center
10:07AM 37.7981 -109.6672 68° East 453 521 39,000  Level Denver Center
10:08AM 37.8442 -109.5258 68° East 454 522 39,000  Level Denver Center
10:09AM 37.8975 -109.3597 68° East 456 525 39,000  Level Denver Center
10:10AM 37.9433 -109.2172 68° East 455 524 39,000  Level Denver Center
10:11AM 37.9894 -109.0753 68° East 454 522 39,000  Level Denver Center
10:12AM 38.0417 -108.9111 68° East 449 517 39,000  Level Denver Center
10:13AM 38.0844 -108.7706 69° East 455 524 39,000  Level Denver Center
10:14AM 38.1372 -108.6114 67° East 443 510 39,000  Level Denver Center
10:15AM 38.1803 -108.4700 69° East 447 514 39,000  Level Denver Center
10:16AM 38.2308 -108.3089 68° East 443 510 39,000  Level Denver Center
10:17AM 38.2742 -108.1694 68° East 441 507 39,000  Level Denver Center
10:18AM 38.3242 -108.0069 69° East 443 510 39,000  Level Denver Center
10:19AM 38.3694 -107.8689 67° East 443 510 39,000 -540 Level Denver Center
10:20AM 38.4286 -107.7397 60° Northeast 440 506 37,900 -1,620 Descending Denver Center
10:21AM 38.4928 -107.5897 61° Northeast 434 499 35,800 -2,280 Descending Denver Center
10:22AM 38.5497 -107.4611 60° Northeast 434 499 33,300 -2,700 Descending Denver Center
10:23AM 38.6150 -107.3103 61° Northeast 436 502 30,300 -2,820 Descending Denver Center
10:24AM 38.6700 -107.1878 60° Northeast 438 504 27,600 -1,620 Descending Denver Center
10:25AM 38.7278 -107.0508 62° Northeast 437 503 27,000 -300 Descending Denver Center
10:26AM 38.7839 -106.9239 60° Northeast 413 475 27,000  Level Denver Center
10:27AM 38.8506 -106.7694 61° Northeast 413 475 27,000  Level Denver Center
10:28AM 38.9061 -106.6417 61° Northeast 410 472 27,000  Level Denver Center
10:30AM 38.9578 -106.5181 62° Northeast 411 473 27,000  Level Denver Center
10:31AM 39.0194 -106.3736 61° Northeast 411 473 27,000  Level Denver Center
10:32AM 39.0708 -106.2508 62° Northeast 409 471 27,000  Level Denver Center
10:33AM 39.1325 -106.1050 61° Northeast 409 471 27,000  Level Denver Center
10:34AM 39.1892 -105.9739 61° Northeast 413 475 27,000 -240 Level Denver Center
10:35AM 39.2450 -105.8411 61° Northeast 416 479 26,600 -1,260 Descending Denver Center
10:36AM 39.3000 -105.7086 62° Northeast 415 478 24,400 -2,100 Descending Denver Center
10:37AM 39.3547 -105.5794 61° Northeast 408 470 22,300 -1,500 Descending Denver Center
10:38AM 39.4075 -105.4572 61° Northeast 372 428 21,400 -1,380 Descending Denver Center
10:39AM 39.4667 -105.3469 55° Northeast 344 396 19,500 -1,860 Descending Denver Center
10:40AM 39.5167 -105.2503 56° Northeast 322 371 17,700 -1,500 Descending Denver Center
10:41AM 39.5708 -105.1469 56° Northeast 316 364 16,500 -1,020 Descending Denver Center
10:42AM 39.6178 -105.0550 56° Northeast 316 364 15,600 -960 Descending Denver Center
10:43AM 39.6667 -104.9633 55° Northeast 310 357 14,600 -780 Descending Denver Center
10:44AM 39.7164 -104.8675 56° Northeast 293 337 14,000 -960 Descending Denver Center
10:45AM 39.7767 -104.8408 19° North 238 274 12,700 -1,500 Descending Denver Center
10:46AM 39.8489 -104.8394 North 241 277 11,000 -840 Descending Denver Center
10:47AM 39.9161 -104.8369 North 240 276 11,000 -540 Level Denver Center
10:48AM 39.9806 -104.8378 359° North 231 266 10,000 -780 Descending Denver Center
10:49AM 40.0522 -104.8403 358° North 236 272 9,500 -540 Descending Denver Center
10:50AM 40.1164 -104.8400 360° North 232 267 9,000 -300 Descending Denver Center
10:51AM 40.1672 -104.7931 35° Northeast 251 289 9,000 -60 Level Denver Center
10:52AM 40.1181 -104.7336 137° Southeast 257 296 8,900 -300 Descending Denver Center
10:53AM 40.0583 -104.7022 158° South 235 270 8,500 -780 Descending Denver Center
10:54AM 40.0000 -104.6947 174° South 197 227 7,400 -1,080 Descending Denver Center